sensor_id;sensor_type;location;lat;lon;timestamp;pressure;altitude;pressure_sealevel;temperature;humidity
60583;BME280;46415;47.536;19.066;2022-12-07T00:02:44;100398.84;;;2.15;100.00
60583;BME280;46415;47.536;19.066;2022-12-07T00:05:47;100395.41;;;2.21;100.00
60583;BME280;46415;47.536;19.066;2022-12-07T00:08:49;100393.75;;;2.17;100.00
60583;BME280;46415;47.536;19.066;2022-12-07T00:11:52;100387.88;;;2.05;100.00
60583;BME280;46415;47.536;19.066;2022-12-07T00:14:54;100385.47;;;1.87;100.00
60583;BME280;46415;47.536;19.066;2022-12-07T00:17:57;100377.84;;;1.83;100.00
60583;BME280;46415;47.536;19.066;2022-12-07T00:21:02;100374.53;;;1.70;100.00
60583;BME280;46415;47.536;19.066;2022-12-07T00:24:05;100366.88;;;1.64;100.00
60583;BME280;46415;47.536;19.066;2022-12-07T00:27:08;100360.13;;;1.60;100.00
60583;BME280;46415;47.536;19.066;2022-12-07T00:30:11;100364.41;;;1.53;100.00
60583;BME280;46415;47.536;19.066;2022-12-07T00:33:13;100369.63;;;1.43;100.00
60583;BME280;46415;47.536;19.066;2022-12-07T00:36:18;100367.09;;;1.34;100.00
60583;BME280;46415;47.536;19.066;2022-12-07T00:39:28;100359.47;;;1.26;100.00
60583;BME280;46415;47.536;19.066;2022-12-07T00:42:30;100360.34;;;1.20;100.00
60583;BME280;46415;47.536;19.066;2022-12-07T00:45:33;100351.06;;;1.12;100.00
60583;BME280;46415;47.536;19.066;2022-12-07T00:48:36;100357.91;;;1.07;100.00
60583;BME280;46415;47.536;19.066;2022-12-07T00:51:39;100358.72;;;1.09;100.00
60583;BME280;46415;47.536;19.066;2022-12-07T00:54:41;100361.28;;;1.07;100.00
60583;BME280;46415;47.536;19.066;2022-12-07T00:57:44;100357.06;;;1.05;100.00
60583;BME280;46415;47.536;19.066;2022-12-07T01:00:47;100357.84;;;1.17;100.00
60583;BME280;46415;47.536;19.066;2022-12-07T01:03:49;100350.22;;;1.11;100.00
60583;BME280;46415;47.536;19.066;2022-12-07T01:06:52;100343.38;;;1.10;100.00
60583;BME280;46415;47.536;19.066;2022-12-07T01:09:55;100345.09;;;1.11;100.00
60583;BME280;46415;47.536;19.066;2022-12-07T01:12:58;100348.53;;;1.04;100.00
60583;BME280;46415;47.536;19.066;2022-12-07T01:16:04;100348.53;;;1.06;100.00
60583;BME280;46415;47.536;19.066;2022-12-07T01:19:07;100346.03;;;0.94;100.00
60583;BME280;46415;47.536;19.066;2022-12-07T01:22:09;100354.63;;;0.82;100.00
60583;BME280;46415;47.536;19.066;2022-12-07T01:25:12;100350.38;;;0.76;100.00
60583;BME280;46415;47.536;19.066;2022-12-07T01:28:15;100354.63;;;0.73;100.00
60583;BME280;46415;47.536;19.066;2022-12-07T01:31:20;100349.53;;;0.74;100.00
60583;BME280;46415;47.536;19.066;2022-12-07T01:34:23;100347.81;;;0.73;100.00
60583;BME280;46415;47.536;19.066;2022-12-07T01:37:25;100345.28;;;0.72;100.00
60583;BME280;46415;47.536;19.066;2022-12-07T01:40:28;100347.84;;;0.75;100.00
60583;BME280;46415;47.536;19.066;2022-12-07T01:43:32;100343.59;;;0.71;100.00
60583;BME280;46415;47.536;19.066;2022-12-07T01:46:35;100346.13;;;0.74;100.00
60583;BME280;46415;47.536;19.066;2022-12-07T01:49:46;100345.19;;;0.90;100.00
60583;BME280;46415;47.536;19.066;2022-12-07T01:52:52;100345.19;;;0.93;100.00
60583;BME280;46415;47.536;19.066;2022-12-07T01:55:57;100347.72;;;0.96;100.00
60583;BME280;46415;47.536;19.066;2022-12-07T01:59:01;100348.44;;;1.24;100.00
60583;BME280;46415;47.536;19.066;2022-12-07T02:02:08;100343.31;;;1.19;100.00
60583;BME280;46415;47.536;19.066;2022-12-07T02:05:13;100333.88;;;1.37;100.00
60583;BME280;46415;47.536;19.066;2022-12-07T02:08:17;100331.28;;;1.40;100.00
60583;BME280;46415;47.536;19.066;2022-12-07T02:11:20;100333.78;;;1.46;100.00
60583;BME280;46415;47.536;19.066;2022-12-07T02:14:23;100332.84;;;1.56;100.00
60583;BME280;46415;47.536;19.066;2022-12-07T02:17:40;100337.00;;;1.71;100.00
60583;BME280;46415;47.536;19.066;2022-12-07T02:24:14;100329.09;;;1.95;100.00
60583;BME280;46415;47.536;19.066;2022-12-07T02:30:40;100329.22;;;1.81;100.00
60583;BME280;46415;47.536;19.066;2022-12-07T02:33:48;100322.41;;;1.83;100.00
60583;BME280;46415;47.536;19.066;2022-12-07T02:36:56;100316.38;;;1.90;100.00
60583;BME280;46415;47.536;19.066;2022-12-07T02:40:09;100326.50;;;2.01;100.00
60583;BME280;46415;47.536;19.066;2022-12-07T02:43:21;100326.50;;;2.01;100.00
60583;BME280;46415;47.536;19.066;2022-12-07T02:46:42;100328.19;;;2.02;100.00
60583;BME280;46415;47.536;19.066;2022-12-07T02:49:47;100331.59;;;2.02;100.00
60583;BME280;46415;47.536;19.066;2022-12-07T02:52:51;100323.75;;;2.18;100.00
60583;BME280;46415;47.536;19.066;2022-12-07T02:55:54;100320.34;;;2.17;100.00
60583;BME280;46415;47.536;19.066;2022-12-07T03:11:49;100307.34;;;2.35;100.00
60583;BME280;46415;47.536;19.066;2022-12-07T03:14:59;100303.94;;;2.36;100.00
60583;BME280;46415;47.536;19.066;2022-12-07T03:18:04;100302.16;;;2.38;100.00
60583;BME280;46415;47.536;19.066;2022-12-07T03:21:14;100299.59;;;2.43;100.00
60583;BME280;46415;47.536;19.066;2022-12-07T03:24:19;100292.62;;;2.51;100.00
60583;BME280;46415;47.536;19.066;2022-12-07T03:30:37;100292.72;;;2.45;100.00
60583;BME280;46415;47.536;19.066;2022-12-07T03:33:49;100299.59;;;2.43;100.00
60583;BME280;46415;47.536;19.066;2022-12-07T03:36:57;100304.72;;;2.40;100.00
60583;BME280;46415;47.536;19.066;2022-12-07T03:40:26;100312.00;;;2.73;100.00
60583;BME280;46415;47.536;19.066;2022-12-07T03:43:32;100314.69;;;2.63;100.00
60583;BME280;46415;47.536;19.066;2022-12-07T03:50:25;100333.59;;;2.56;100.00
60583;BME280;46415;47.536;19.066;2022-12-07T03:53:44;100337.88;;;2.51;100.00
60583;BME280;46415;47.536;19.066;2022-12-07T03:56:49;100339.84;;;2.29;100.00
60583;BME280;46415;47.536;19.066;2022-12-07T03:59:54;100332.28;;;2.20;100.00
60583;BME280;46415;47.536;19.066;2022-12-07T04:02:58;100331.44;;;2.19;100.00
60583;BME280;46415;47.536;19.066;2022-12-07T04:06:01;100331.44;;;2.16;100.00
60583;BME280;46415;47.536;19.066;2022-12-07T04:09:04;100327.22;;;2.14;100.00
60583;BME280;46415;47.536;19.066;2022-12-07T04:12:07;100328.94;;;2.12;100.00
60583;BME280;46415;47.536;19.066;2022-12-07T04:15:10;100339.13;;;2.16;100.00
60583;BME280;46415;47.536;19.066;2022-12-07T04:18:13;100332.34;;;2.14;100.00
60583;BME280;46415;47.536;19.066;2022-12-07T04:21:15;100332.28;;;2.17;100.00
60583;BME280;46415;47.536;19.066;2022-12-07T04:24:19;100328.81;;;2.24;100.00
60583;BME280;46415;47.536;19.066;2022-12-07T04:27:21;100340.69;;;2.31;100.00
60583;BME280;46415;47.536;19.066;2022-12-07T04:30:24;100332.94;;;2.35;100.00
60583;BME280;46415;47.536;19.066;2022-12-07T04:33:27;100330.31;;;2.43;100.00
60583;BME280;46415;47.536;19.066;2022-12-07T04:36:30;100329.47;;;2.41;100.00
60583;BME280;46415;47.536;19.066;2022-12-07T04:39:33;100324.34;;;2.41;100.00
60583;BME280;46415;47.536;19.066;2022-12-07T04:42:36;100326.84;;;2.45;100.00
60583;BME280;46415;47.536;19.066;2022-12-07T04:45:39;100330.25;;;2.47;100.00
60583;BME280;46415;47.536;19.066;2022-12-07T04:48:42;100330.19;;;2.52;100.00
60583;BME280;46415;47.536;19.066;2022-12-07T04:51:45;100333.53;;;2.59;100.00
60583;BME280;46415;47.536;19.066;2022-12-07T04:54:48;100339.47;;;2.62;100.00
60583;BME280;46415;47.536;19.066;2022-12-07T04:57:51;100330.84;;;2.69;100.00
60583;BME280;46415;47.536;19.066;2022-12-07T05:00:54;100336.88;;;2.65;100.00
60583;BME280;46415;47.536;19.066;2022-12-07T05:03:58;100320.62;;;2.66;100.00
60583;BME280;46415;47.536;19.066;2022-12-07T05:07:01;100329.94;;;2.73;100.00
60583;BME280;46415;47.536;19.066;2022-12-07T05:10:04;100323.91;;;2.79;100.00
60583;BME280;46415;47.536;19.066;2022-12-07T05:13:07;100313.66;;;2.79;100.00
60583;BME280;46415;47.536;19.066;2022-12-07T05:16:10;100308.47;;;2.80;100.00
60583;BME280;46415;47.536;19.066;2022-12-07T05:19:13;100307.59;;;2.84;100.00
60583;BME280;46415;47.536;19.066;2022-12-07T05:22:15;100309.28;;;2.85;100.00
60583;BME280;46415;47.536;19.066;2022-12-07T05:25:18;100293.16;;;2.76;100.00
60583;BME280;46415;47.536;19.066;2022-12-07T05:28:21;100295.66;;;2.80;100.00
60583;BME280;46415;47.536;19.066;2022-12-07T05:31:24;100295.72;;;2.79;100.00
60583;BME280;46415;47.536;19.066;2022-12-07T05:34:27;100296.50;;;2.82;100.00
60583;BME280;46415;47.536;19.066;2022-12-07T05:37:30;100299.06;;;2.82;100.00
60583;BME280;46415;47.536;19.066;2022-12-07T05:40:32;100297.38;;;2.81;100.00
60583;BME280;46415;47.536;19.066;2022-12-07T05:43:35;100294.78;;;2.84;100.00
60583;BME280;46415;47.536;19.066;2022-12-07T05:46:38;100300.00;;;2.77;100.00
60583;BME280;46415;47.536;19.066;2022-12-07T05:49:40;100296.56;;;2.78;100.00
60583;BME280;46415;47.536;19.066;2022-12-07T05:52:43;100294.84;;;2.80;100.00
60583;BME280;46415;47.536;19.066;2022-12-07T05:55:46;100292.22;;;2.84;100.00
60583;BME280;46415;47.536;19.066;2022-12-07T05:58:48;100304.16;;;2.85;100.00
60583;BME280;46415;47.536;19.066;2022-12-07T06:02:13;100313.50;;;2.88;100.00
60583;BME280;46415;47.536;19.066;2022-12-07T06:05:16;100312.59;;;2.94;100.00
60583;BME280;46415;47.536;19.066;2022-12-07T06:08:18;100315.22;;;2.89;100.00
60583;BME280;46415;47.536;19.066;2022-12-07T06:11:21;100321.97;;;2.93;100.00
60583;BME280;46415;47.536;19.066;2022-12-07T06:14:42;100314.25;;;2.98;100.00
60583;BME280;46415;47.536;19.066;2022-12-07T06:17:47;100325.31;;;3.00;100.00
60583;BME280;46415;47.536;19.066;2022-12-07T06:20:49;100315.06;;;3.01;100.00
60583;BME280;46415;47.536;19.066;2022-12-07T06:23:52;100314.78;;;3.19;100.00
60583;BME280;46415;47.536;19.066;2022-12-07T06:26:55;100319.00;;;3.22;100.00
60583;BME280;46415;47.536;19.066;2022-12-07T06:29:58;100307.03;;;3.24;100.00
60583;BME280;46415;47.536;19.066;2022-12-07T06:33:02;100314.53;;;3.36;100.00
60583;BME280;46415;47.536;19.066;2022-12-07T06:36:05;100314.53;;;3.35;100.00
60583;BME280;46415;47.536;19.066;2022-12-07T06:39:08;100317.94;;;3.38;100.00
60583;BME280;46415;47.536;19.066;2022-12-07T06:42:11;100315.00;;;3.59;100.00
60583;BME280;46415;47.536;19.066;2022-12-07T06:45:14;100333.13;;;3.50;100.00
60583;BME280;46415;47.536;19.066;2022-12-07T06:48:16;100325.44;;;3.50;100.00
60583;BME280;46415;47.536;19.066;2022-12-07T06:51:19;100336.56;;;3.51;100.00
60583;BME280;46415;47.536;19.066;2022-12-07T06:54:22;100334.84;;;3.51;100.00
60583;BME280;46415;47.536;19.066;2022-12-07T06:57:25;100332.31;;;3.48;100.00
60583;BME280;46415;47.536;19.066;2022-12-07T07:00:28;100342.56;;;3.48;100.00
60583;BME280;46415;47.536;19.066;2022-12-07T07:03:31;100341.50;;;3.61;100.00
60583;BME280;46415;47.536;19.066;2022-12-07T07:06:34;100330.56;;;3.50;100.00
60583;BME280;46415;47.536;19.066;2022-12-07T07:09:37;100336.75;;;3.36;100.00
60583;BME280;46415;47.536;19.066;2022-12-07T07:12:39;100334.97;;;3.41;100.00
60583;BME280;46415;47.536;19.066;2022-12-07T07:15:42;100324.03;;;3.28;100.00
60583;BME280;46415;47.536;19.066;2022-12-07T07:18:45;100338.66;;;3.23;100.00
60583;BME280;46415;47.536;19.066;2022-12-07T07:21:47;100344.69;;;3.20;100.00
60583;BME280;46415;47.536;19.066;2022-12-07T07:24:50;100339.41;;;3.31;100.00
60583;BME280;46415;47.536;19.066;2022-12-07T07:27:53;100344.63;;;3.25;100.00
60583;BME280;46415;47.536;19.066;2022-12-07T07:30:56;100344.56;;;3.28;100.00
60583;BME280;46415;47.536;19.066;2022-12-07T07:33:58;100332.56;;;3.30;100.00
60583;BME280;46415;47.536;19.066;2022-12-07T07:37:01;100348.87;;;3.27;100.00
60583;BME280;46415;47.536;19.066;2022-12-07T07:40:04;100338.53;;;3.32;100.00
60583;BME280;46415;47.536;19.066;2022-12-07T07:43:07;100335.72;;;3.47;100.00
60583;BME280;46415;47.536;19.066;2022-12-07T07:46:10;100339.13;;;3.51;100.00
60583;BME280;46415;47.536;19.066;2022-12-07T07:49:13;100337.06;;;3.69;100.00
60583;BME280;46415;47.536;19.066;2022-12-07T07:52:16;100333.53;;;3.77;100.00
60583;BME280;46415;47.536;19.066;2022-12-07T07:55:18;100337.66;;;3.87;100.00
60583;BME280;46415;47.536;19.066;2022-12-07T07:58:21;100338.25;;;4.01;100.00
60583;BME280;46415;47.536;19.066;2022-12-07T08:01:24;100338.03;;;4.13;100.00
60583;BME280;46415;47.536;19.066;2022-12-07T08:04:29;100345.44;;;4.30;100.00
60583;BME280;46415;47.536;19.066;2022-12-07T08:07:31;100346.06;;;4.41;100.00
60583;BME280;46415;47.536;19.066;2022-12-07T08:10:34;100353.66;;;4.48;100.00
60583;BME280;46415;47.536;19.066;2022-12-07T08:13:37;100347.53;;;4.56;100.00
60583;BME280;46415;47.536;19.066;2022-12-07T08:16:40;100348.50;;;4.48;100.00
60583;BME280;46415;47.536;19.066;2022-12-07T08:19:42;100348.50;;;4.50;100.00
60583;BME280;46415;47.536;19.066;2022-12-07T08:22:45;100352.00;;;4.46;100.00
60583;BME280;46415;47.536;19.066;2022-12-07T08:25:48;100356.19;;;4.50;100.00
60583;BME280;46415;47.536;19.066;2022-12-07T08:28:52;100361.12;;;4.61;100.00
60583;BME280;46415;47.536;19.066;2022-12-07T08:32:02;100365.38;;;4.62;100.00
60583;BME280;46415;47.536;19.066;2022-12-07T08:35:11;100363.78;;;4.58;100.00
60583;BME280;46415;47.536;19.066;2022-12-07T08:38:13;100371.38;;;4.64;100.00
60583;BME280;46415;47.536;19.066;2022-12-07T08:41:16;100366.09;;;4.70;100.00
60583;BME280;46415;47.536;19.066;2022-12-07T08:44:19;100376.16;;;4.80;100.00
60583;BME280;46415;47.536;19.066;2022-12-07T08:47:22;100364.81;;;4.90;100.00
60583;BME280;46415;47.536;19.066;2022-12-07T08:50:26;100368.78;;;5.05;100.00
60583;BME280;46415;47.536;19.066;2022-12-07T08:53:30;100371.28;;;5.08;100.00
60583;BME280;46415;47.536;19.066;2022-12-07T08:56:33;100366.84;;;5.16;100.00
60583;BME280;46415;47.536;19.066;2022-12-07T08:59:37;100371.63;;;5.31;100.00
60583;BME280;46415;47.536;19.066;2022-12-07T09:02:40;100366.09;;;5.48;100.00
60583;BME280;46415;47.536;19.066;2022-12-07T09:05:42;100373.38;;;5.66;100.00
60583;BME280;46415;47.536;19.066;2022-12-07T09:08:47;100369.37;;;5.55;100.00
60583;BME280;46415;47.536;19.066;2022-12-07T09:11:52;100372.75;;;5.58;100.00
60583;BME280;46415;47.536;19.066;2022-12-07T09:14:55;100365.94;;;5.54;100.00
60583;BME280;46415;47.536;19.066;2022-12-07T09:17:58;100370.06;;;5.63;100.00
60583;BME280;46415;47.536;19.066;2022-12-07T09:21:01;100366.59;;;5.64;100.00
60583;BME280;46415;47.536;19.066;2022-12-07T09:24:04;100366.88;;;5.53;100.00
60583;BME280;46415;47.536;19.066;2022-12-07T09:27:06;100357.88;;;5.69;100.00
60583;BME280;46415;47.536;19.066;2022-12-07T09:30:09;100349.19;;;5.73;100.00
60583;BME280;46415;47.536;19.066;2022-12-07T09:33:12;100346.22;;;5.55;100.00
60583;BME280;46415;47.536;19.066;2022-12-07T09:36:15;100351.34;;;5.55;100.00
60583;BME280;46415;47.536;19.066;2022-12-07T09:39:17;100349.34;;;5.67;100.00
60583;BME280;46415;47.536;19.066;2022-12-07T09:42:32;100353.34;;;5.79;100.00
60583;BME280;46415;47.536;19.066;2022-12-07T09:45:36;100351.00;;;6.05;100.00
60583;BME280;46415;47.536;19.066;2022-12-07T09:48:42;100337.34;;;6.34;100.00
60583;BME280;46415;47.536;19.066;2022-12-07T09:51:46;100334.59;;;6.42;100.00
60583;BME280;46415;47.536;19.066;2022-12-07T09:54:50;100338.84;;;6.43;100.00
60583;BME280;46415;47.536;19.066;2022-12-07T09:57:53;100338.22;;;6.35;100.00
60583;BME280;46415;47.536;19.066;2022-12-07T10:04:18;100325.69;;;6.52;100.00
60583;BME280;46415;47.536;19.066;2022-12-07T10:07:23;100324.97;;;6.78;100.00
60583;BME280;46415;47.536;19.066;2022-12-07T10:10:33;100320.19;;;6.93;100.00
60583;BME280;46415;47.536;19.066;2022-12-07T10:13:44;100329.53;;;6.97;98.09
60583;BME280;46415;47.536;19.066;2022-12-07T10:16:48;100329.41;;;6.73;98.59
60583;BME280;46415;47.536;19.066;2022-12-07T10:19:51;100319.28;;;6.67;100.00
60583;BME280;46415;47.536;19.066;2022-12-07T10:22:58;100320.72;;;6.75;97.97
60583;BME280;46415;47.536;19.066;2022-12-07T10:27:05;100318.75;;;6.85;98.16
60583;BME280;46415;47.536;19.066;2022-12-07T10:29:47;100321.03;;;6.94;98.47
60583;BME280;46415;47.536;19.066;2022-12-07T10:32:50;100322.41;;;7.06;97.78
60583;BME280;46415;47.536;19.066;2022-12-07T10:35:53;100314.50;;;6.82;95.54
60583;BME280;46415;47.536;19.066;2022-12-07T10:39:10;100316.50;;;6.43;96.19
60583;BME280;46415;47.536;19.066;2022-12-07T10:45:22;100301.25;;;6.65;97.77
60583;BME280;46415;47.536;19.066;2022-12-07T10:58:42;100306.75;;;6.22;95.29
60583;BME280;46415;47.536;19.066;2022-12-07T11:05:19;100295.53;;;6.25;96.77
60583;BME280;46415;47.536;19.066;2022-12-07T11:12:10;100294.87;;;6.17;97.18
60583;BME280;46415;47.536;19.066;2022-12-07T11:15:33;100293.19;;;6.15;97.00
60583;BME280;46415;47.536;19.066;2022-12-07T11:22:10;100292.16;;;6.23;97.70
60583;BME280;46415;47.536;19.066;2022-12-07T11:25:24;100286.19;;;6.21;96.20
60583;BME280;46415;47.536;19.066;2022-12-07T11:31:45;100286.19;;;6.21;94.85
60583;BME280;46415;47.536;19.066;2022-12-07T11:41:48;100283.44;;;6.27;94.48
60583;BME280;46415;47.536;19.066;2022-12-07T11:44:57;100279.28;;;6.21;94.67
60583;BME280;46415;47.536;19.066;2022-12-07T11:48:03;100282.00;;;6.17;96.01
60583;BME280;46415;47.536;19.066;2022-12-07T11:51:10;100278.59;;;6.16;96.27
60583;BME280;46415;47.536;19.066;2022-12-07T11:54:34;100294.00;;;6.18;97.21
60583;BME280;46415;47.536;19.066;2022-12-07T11:57:42;100283.88;;;6.11;95.96
60583;BME280;46415;47.536;19.066;2022-12-07T12:00:47;100298.97;;;6.25;95.47
60583;BME280;46415;47.536;19.066;2022-12-07T12:03:55;100281.00;;;6.22;93.08
60583;BME280;46415;47.536;19.066;2022-12-07T12:06:59;100279.12;;;6.27;92.44
60583;BME280;46415;47.536;19.066;2022-12-07T12:10:44;100270.81;;;6.18;91.95
60583;BME280;46415;47.536;19.066;2022-12-07T12:14:22;100257.78;;;6.24;89.72
60583;BME280;46415;47.536;19.066;2022-12-07T12:21:28;100254.31;;;6.54;90.33
60583;BME280;46415;47.536;19.066;2022-12-07T12:24:32;100247.63;;;6.76;89.93
60583;BME280;46415;47.536;19.066;2022-12-07T12:27:39;100237.31;;;6.76;93.27
60583;BME280;46415;47.536;19.066;2022-12-07T12:30:42;100235.25;;;6.87;93.34
60583;BME280;46415;47.536;19.066;2022-12-07T12:33:50;100228.62;;;7.07;93.21
60583;BME280;46415;47.536;19.066;2022-12-07T12:36:53;100225.41;;;7.77;89.96
60583;BME280;46415;47.536;19.066;2022-12-07T12:43:47;100229.94;;;10.32;76.99
60583;BME280;46415;47.536;19.066;2022-12-07T12:47:01;100225.12;;;11.34;68.22
60583;BME280;46415;47.536;19.066;2022-12-07T12:50:26;100217.06;;;10.10;71.99
60583;BME280;46415;47.536;19.066;2022-12-07T12:53:29;100228.25;;;9.10;76.75
60583;BME280;46415;47.536;19.066;2022-12-07T13:02:56;100231.59;;;7.47;84.35
60583;BME280;46415;47.536;19.066;2022-12-07T13:06:19;100239.16;;;7.27;85.72
60583;BME280;46415;47.536;19.066;2022-12-07T13:09:24;100246.19;;;6.95;84.03
60583;BME280;46415;47.536;19.066;2022-12-07T13:12:28;100245.38;;;6.93;82.95
60583;BME280;46415;47.536;19.066;2022-12-07T13:18:41;100240.44;;;6.86;82.29
60583;BME280;46415;47.536;19.066;2022-12-07T13:21:44;100240.59;;;6.81;82.06
60583;BME280;46415;47.536;19.066;2022-12-07T13:24:47;100242.22;;;6.56;82.84
60583;BME280;46415;47.536;19.066;2022-12-07T13:28:01;100252.34;;;6.62;83.87
60583;BME280;46415;47.536;19.066;2022-12-07T13:34:40;100251.63;;;6.28;86.40
60583;BME280;46415;47.536;19.066;2022-12-07T13:37:44;100255.56;;;6.10;87.89
60583;BME280;46415;47.536;19.066;2022-12-07T13:41:16;100250.25;;;6.16;88.94
60583;BME280;46415;47.536;19.066;2022-12-07T13:44:19;100250.94;;;5.90;90.04
60583;BME280;46415;47.536;19.066;2022-12-07T13:47:44;100256.38;;;5.78;91.74
60583;BME280;46415;47.536;19.066;2022-12-07T13:50:56;100262.66;;;5.68;93.19
60583;BME280;46415;47.536;19.066;2022-12-07T13:54:01;100262.78;;;5.63;93.75
60583;BME280;46415;47.536;19.066;2022-12-07T13:57:04;100267.84;;;5.66;94.54
60583;BME280;46415;47.536;19.066;2022-12-07T14:00:16;100265.88;;;5.76;93.68
60583;BME280;46415;47.536;19.066;2022-12-07T14:03:29;100267.81;;;5.68;94.78
60583;BME280;46415;47.536;19.066;2022-12-07T14:06:32;100279.88;;;5.66;95.49
60583;BME280;46415;47.536;19.066;2022-12-07T14:09:35;100271.56;;;5.55;96.73
60583;BME280;46415;47.536;19.066;2022-12-07T14:12:37;100266.66;;;5.46;96.96
60583;BME280;46415;47.536;19.066;2022-12-07T14:15:40;100260.69;;;5.44;97.29
60583;BME280;46415;47.536;19.066;2022-12-07T14:18:43;100262.66;;;5.34;98.23
60583;BME280;46415;47.536;19.066;2022-12-07T14:21:46;100260.97;;;5.33;99.53
60583;BME280;46415;47.536;19.066;2022-12-07T14:24:49;100269.06;;;5.16;100.00
60583;BME280;46415;47.536;19.066;2022-12-07T14:28:00;100265.91;;;5.05;100.00
60583;BME280;46415;47.536;19.066;2022-12-07T14:31:07;100262.62;;;4.99;100.00
60583;BME280;46415;47.536;19.066;2022-12-07T14:34:16;100267.78;;;4.99;100.00
60583;BME280;46415;47.536;19.066;2022-12-07T14:37:19;100269.56;;;4.95;100.00
60583;BME280;46415;47.536;19.066;2022-12-07T14:40:25;100277.63;;;4.78;100.00
60583;BME280;46415;47.536;19.066;2022-12-07T14:43:32;100270.00;;;4.75;100.00
60583;BME280;46415;47.536;19.066;2022-12-07T14:46:35;100285.38;;;4.77;100.00
60583;BME280;46415;47.536;19.066;2022-12-07T14:49:37;100287.31;;;4.67;100.00
60583;BME280;46415;47.536;19.066;2022-12-07T14:52:42;100294.28;;;4.61;100.00
60583;BME280;46415;47.536;19.066;2022-12-07T14:56:05;100284.34;;;4.45;100.00
60583;BME280;46415;47.536;19.066;2022-12-07T14:59:09;100291.69;;;4.21;100.00
60583;BME280;46415;47.536;19.066;2022-12-07T15:02:13;100292.91;;;4.01;100.00
60583;BME280;46415;47.536;19.066;2022-12-07T15:05:17;100282.09;;;3.83;100.00
60583;BME280;46415;47.536;19.066;2022-12-07T15:08:20;100285.81;;;3.66;100.00
60583;BME280;46415;47.536;19.066;2022-12-07T15:11:23;100294.50;;;3.58;100.00
60583;BME280;46415;47.536;19.066;2022-12-07T15:14:26;100295.53;;;3.46;100.00
60583;BME280;46415;47.536;19.066;2022-12-07T15:17:29;100295.78;;;3.33;100.00
60583;BME280;46415;47.536;19.066;2022-12-07T15:20:33;100293.34;;;3.23;100.00
60583;BME280;46415;47.536;19.066;2022-12-07T15:23:36;100293.50;;;3.14;100.00
60583;BME280;46415;47.536;19.066;2022-12-07T15:26:40;100288.47;;;3.07;100.00
60583;BME280;46415;47.536;19.066;2022-12-07T15:29:43;100301.41;;;2.99;100.00
60583;BME280;46415;47.536;19.066;2022-12-07T15:32:49;100300.53;;;2.99;100.00
60583;BME280;46415;47.536;19.066;2022-12-07T15:35:52;100295.50;;;2.93;100.00
60583;BME280;46415;47.536;19.066;2022-12-07T15:38:55;100298.22;;;2.83;100.00
60583;BME280;46415;47.536;19.066;2022-12-07T15:42:16;100300.06;;;2.72;100.00
60583;BME280;46415;47.536;19.066;2022-12-07T15:45:18;100312.94;;;2.68;100.00
60583;BME280;46415;47.536;19.066;2022-12-07T15:48:21;100318.87;;;2.70;100.00
60583;BME280;46415;47.536;19.066;2022-12-07T15:51:31;100317.12;;;2.73;100.00
60583;BME280;46415;47.536;19.066;2022-12-07T15:54:34;100319.72;;;2.73;100.00
60583;BME280;46415;47.536;19.066;2022-12-07T15:57:37;100323.19;;;2.66;100.00
60583;BME280;46415;47.536;19.066;2022-12-07T16:00:40;100324.94;;;2.64;100.00
60583;BME280;46415;47.536;19.066;2022-12-07T16:03:44;100322.91;;;2.87;100.00
60583;BME280;46415;47.536;19.066;2022-12-07T16:06:47;100320.31;;;2.91;100.00
60583;BME280;46415;47.536;19.066;2022-12-07T16:09:50;100321.28;;;2.83;100.00
60583;BME280;46415;47.536;19.066;2022-12-07T16:12:52;100318.87;;;2.71;100.00
60583;BME280;46415;47.536;19.066;2022-12-07T16:15:55;100312.13;;;2.63;100.00
60583;BME280;46415;47.536;19.066;2022-12-07T16:18:58;100322.50;;;2.55;100.00
60583;BME280;46415;47.536;19.066;2022-12-07T16:22:01;100317.38;;;2.55;100.00
60583;BME280;46415;47.536;19.066;2022-12-07T16:25:04;100314.03;;;2.45;100.00
60583;BME280;46415;47.536;19.066;2022-12-07T16:28:08;100319.22;;;2.42;100.00
60583;BME280;46415;47.536;19.066;2022-12-07T16:31:13;100314.97;;;2.41;100.00
60583;BME280;46415;47.536;19.066;2022-12-07T16:34:16;100321.78;;;2.44;100.00
60583;BME280;46415;47.536;19.066;2022-12-07T16:37:19;100327.03;;;2.32;100.00
60583;BME280;46415;47.536;19.066;2022-12-07T16:40:22;100322.88;;;2.20;100.00
60583;BME280;46415;47.536;19.066;2022-12-07T16:43:24;100320.41;;;2.13;100.00
60583;BME280;46415;47.536;19.066;2022-12-07T16:46:27;100325.47;;;2.16;100.00
60583;BME280;46415;47.536;19.066;2022-12-07T16:49:30;100323.78;;;2.15;100.00
60583;BME280;46415;47.536;19.066;2022-12-07T16:52:33;100326.06;;;2.39;100.00
60583;BME280;46415;47.536;19.066;2022-12-07T16:55:42;100331.06;;;2.51;100.00
60583;BME280;46415;47.536;19.066;2022-12-07T16:58:45;100321.63;;;2.56;100.00
60583;BME280;46415;47.536;19.066;2022-12-07T17:01:49;100331.19;;;2.39;100.00
60583;BME280;46415;47.536;19.066;2022-12-07T17:04:52;100330.34;;;2.38;100.00
60583;BME280;46415;47.536;19.066;2022-12-07T17:07:55;100333.88;;;2.27;100.00
60583;BME280;46415;47.536;19.066;2022-12-07T17:10:59;100326.91;;;2.41;100.00
60583;BME280;46415;47.536;19.066;2022-12-07T17:14:01;100332.16;;;2.32;100.00
60583;BME280;46415;47.536;19.066;2022-12-07T17:17:23;100344.19;;;2.21;100.00
60583;BME280;46415;47.536;19.066;2022-12-07T17:20:26;100343.56;;;1.97;100.00
60583;BME280;46415;47.536;19.066;2022-12-07T17:23:30;100347.12;;;1.81;100.00
60583;BME280;46415;47.536;19.066;2022-12-07T17:26:33;100348.09;;;1.71;100.00